Latest Weather Observations for Avalon

IDV60901

Issued at 1:41 pm EDT Monday 27 March 2017 (issued every 10 minutes, with the page automatically refreshed every 10 minutes)

About weather observations | Map of Melbourne area stations | Latest observations for Melbourne area | Other Formats
Station Details ID: 087113 Name: AVALON AIRPORT Lat: -38.03 Lon: 144.48 Height: 10.6 m
Data from the previous 72 hours. | See also: Recent months at Avalon
Date/Time
EDT
Temp
°C
App
Temp
°C
Dew
Point
°C
Rel
Hum
%
Delta-T
°C
Wind Press
QNH
hPa
Press
MSL
hPa
Rain since
9am
mm
Dir  Spd
km/h
Gust
km/h
Spd
kts
Gust
kts
27/01:30pm 23.1 13.7 14.4 58 5.1 W 57 78 31 42 1007.3 1007.3 0.0
27/01:00pm 24.5 14.4 15.7 58 5.3 WSW 63 85 34 46 1006.7 1006.7 0.0
27/12:42pm 26.0 17.2 16.0 54 6.1 WNW 57 85 31 46 1005.2 1005.2 0.0
27/12:30pm 32.6 23.7 14.2 32 11.2 NW 54 74 29 40 1003.9 1003.9 0.0
27/12:00pm 33.9 26.4 14.9 32 11.8 NNW 48 69 26 37 1003.0 1003.0 0.0
27/11:41am 33.1 23.9 15.1 33 11.2 NNW 57 74 31 40 1002.2 1002.2 0.0
27/11:39am 33.4 24.3 15.4 34 11.2 N 57 76 31 41 1002.1 1002.1 0.0
27/11:30am 32.6 21.0 14.7 34 11.0 N 69 89 37 48 1001.4 1001.4 0.0
27/11:00am 32.5 23.3 15.1 35 10.8 N 57 83 31 45 1001.6 1001.6 0.0
27/10:58am 32.6 23.6 15.1 34 10.8 N 56 83 30 45 1001.7 1001.7 0.0
27/10:54am 32.5 24.3 15.1 35 10.8 N 52 72 28 39 1001.8 1001.8 0.0
27/10:34am 32.0 26.8 15.5 37 10.2 NNE 37 57 20 31 1002.2 1002.2 0.0
27/10:30am 31.1 26.3 15.5 39 9.7 NNE 35 48 19 26 1002.2 1002.2 0.0
27/10:00am 30.2 25.9 15.9 42 8.9 NNE 33 46 18 25 1002.7 1002.7 0.0
27/09:30am 28.9 22.5 14.3 40 8.8 NNE 41 59 22 32 1002.4 1002.4 0.0
27/09:02am 27.8 22.6 14.4 43 8.1 NNE 35 54 19 29 1002.8 1002.8 0.0
27/09:00am 27.7 22.4 14.3 43 8.1 NNE 35 52 19 28 1002.8 1002.8 0.0
27/08:39am 27.2 24.0 14.2 44 7.8 NNE 24 43 13 23 1003.0 1003.0 0.0
27/08:30am 24.6 23.1 15.2 55 5.6 NE 17 24 9 13 1003.3 1003.3 0.0
27/08:00am 24.8 21.4 13.7 50 6.5 NE 24 30 13 16 1003.4 1003.4 0.0
27/07:30am 25.5 22.7 12.7 45 7.4 N 19 32 10 17 1004.1 1004.1 0.0
27/07:00am 25.8 20.8 12.3 43 7.8 NNE 30 46 16 25 1003.6 1003.6 0.0
27/06:49am 26.6 20.2 11.9 40 8.4 NNE 37 57 20 31 1003.6 1003.6 0.0
27/06:47am 26.4 20.4 12.1 41 8.2 NNE 35 52 19 28 1003.5 1003.5 0.0
27/06:30am 25.2 21.5 12.8 46 7.2 NNE 24 33 13 18 1004.1 1004.1 0.0
27/06:00am 24.4 20.8 13.0 49 6.6 N 24 35 13 19 1004.5 1004.5 0.0
27/05:30am 23.6 22.1 14.3 56 5.5 NNE 15 22 8 12 1004.9 1004.9 0.0
27/05:00am 19.9 20.5 15.3 75 2.7 WNW 6 9 3 5 1005.8 1005.8 0.0
27/04:30am 20.5 20.8 16.1 76 2.6 NE 9 11 5 6 1005.8 1005.8 0.0
27/04:00am 19.7 20.0 17.1 85 1.6 NE 11 15 6 8 1006.3 1006.3 0.0
27/03:30am 19.5 19.3 17.6 89 1.2 ENE 15 19 8 10 1006.1 1006.1 0.0
27/03:00am 18.9 19.2 18.7 99 0.1 NE 15 19 8 10 1006.8 1006.8 0.0
27/02:30am 18.2 19.3 18.0 99 0.1 NE 9 15 5 8 1007.6 1007.6 0.0
27/02:00am 18.2 19.3 18.0 99 0.1 ENE 9 11 5 6 1008.1 1008.1 0.0
27/01:30am 18.2 19.3 18.0 99 0.1 NNE 9 11 5 6 1008.6 1008.6 0.0
27/01:00am 18.0 18.6 17.8 99 0.1 NNE 11 13 6 7 1009.2 1009.2 0.0
27/12:30am 17.7 18.6 17.5 99 0.1 NE 9 13 5 7 1009.7 1009.7 0.0
27/12:00am 18.0 19.0 17.8 99 0.1 NE 9 13 5 7 1010.2 1010.2 0.0
 
Date/Time
EDT
Temp
°C
App
Temp
°C
Dew
Point
°C
Rel
Hum
%
Delta-T
°C
Wind Press
QNH
hPa
Press
MSL
hPa
Rain since
9am
mm
Dir  Spd
km/h
Gust
km/h
Spd
kts
Gust
kts
26/11:30pm 18.0 19.4 17.8 99 0.1 N 7 9 4 5 1010.9 1010.9 0.0
26/11:00pm 17.8 18.7 17.6 99 0.1 N 9 11 5 6 1011.3 1011.3 0.0
26/10:30pm 18.2 19.2 17.7 97 0.3 NNW 9 11 5 6 1011.7 1011.7 0.0
26/10:00pm 18.6 20.0 17.9 96 0.4 N 7 7 4 4 1011.7 1011.7 0.0
26/09:30pm 18.6 19.9 17.6 94 0.6 N 7 9 4 5 1012.0 1012.0 0.0
26/09:00pm 18.7 19.8 17.2 91 0.9 ENE 7 9 4 5 1011.9 1011.9 0.0
26/08:30pm 18.5 19.1 16.7 89 1.1 SSE 9 9 5 5 1011.8 1011.8 0.0
26/08:00pm 19.4 20.5 17.0 86 1.5 SSE 7 9 4 5 1012.1 1012.1 0.0
26/07:30pm 20.4 20.8 17.2 82 2.0 SSE 11 15 6 8 1011.7 1011.7 0.0
26/07:00pm 21.9 23.1 17.3 75 2.8 ESE 7 9 4 5 1011.7 1011.7 0.0
26/06:30pm 22.7 23.1 17.2 71 3.4 ESE 11 13 6 7 1011.8 1011.8 0.0
26/06:00pm 23.2 23.2 17.2 69 3.7 ESE 13 17 7 9 1011.8 1011.8 0.0
26/05:30pm 23.9 24.0 17.4 67 4.0 SE 13 19 7 10 1011.6 1011.6 0.0
26/05:00pm 23.7 24.1 17.2 67 4.0 SE 11 17 6 9 1011.9 1011.9 0.0
26/04:30pm 23.5 23.8 17.0 67 4.0 ESE 11 15 6 8 1011.9 1011.9 0.0
26/04:00pm 23.6 23.6 17.1 67 4.0 ESE 13 19 7 10 1012.1 1012.1 0.0
26/03:30pm 23.5 23.6 17.5 69 3.7 SE 13 19 7 10 1012.2 1012.2 0.0
26/03:00pm 23.4 24.4 17.8 71 3.5 SE 9 19 5 10 1012.7 1012.7 0.0
26/02:30pm 22.5 22.9 17.2 72 3.3 SE 11 19 6 10 1013.0 1013.0 0.0
26/02:00pm 21.7 21.7 17.1 75 2.8 SE 13 17 7 9 1013.6 1013.6 0.0
26/01:30pm 21.4 20.9 17.0 76 2.7 ESE 15 20 8 11 1014.1 1014.1 0.0
26/01:00pm 21.4 21.5 16.4 73 3.0 ENE 11 17 6 9 1014.5 1014.5 0.0
26/12:30pm 21.1 21.4 16.9 77 2.6 ESE 11 15 6 8 1014.8 1014.8 0.0
26/12:00pm 20.5 21.1 16.9 80 2.2 ESE 9 15 5 8 1015.2 1015.2 0.0
26/11:30am 20.2 20.8 16.8 81 2.1 ESE 9 15 5 8 1015.6 1015.6 0.0
26/11:00am 20.1 20.7 16.9 82 1.9 SE 9 13 5 7 1015.8 1015.8 0.0
26/10:30am 19.7 19.9 16.7 83 1.8 SSE 11 13 6 7 1016.0 1016.0 0.0
26/10:00am 19.5 19.8 16.9 85 1.6 SSE 11 15 6 8 1015.9 1015.9 0.0
26/09:30am 19.4 19.8 17.2 87 1.3 SSE 11 15 6 8 1015.5 1015.5 0.0
26/09:06am 19.3 20.1 17.4 89 1.2 SE 9 13 5 7 1015.3 1015.3 0.0
26/09:00am 19.3 19.9 17.6 90 1.0 ESE 11 13 6 7 1015.2 1015.2 0.0
26/08:30am 19.0 20.7 18.0 94 0.6 SSE 6 9 3 5 1015.0 1015.0 0.0
26/08:00am 18.8 21.7 18.1 96 0.4 CALM 0 9 0 5 1014.8 1014.8 0.0
26/07:30am 18.6 21.3 17.8 95 0.5 CALM 0 0 0 0 1014.7 1014.7 0.0
26/07:00am 18.6 21.3 17.8 95 0.5 CALM 0 0 0 0 1014.4 1014.4 0.0
26/06:30am 18.5 21.3 18.0 97 0.3 CALM 0 0 0 0 1014.1 1014.1 0.0
26/06:00am 18.5 21.3 18.0 97 0.3 CALM 0 0 0 0 1014.1 1014.1 0.0
26/05:30am 18.5 20.5 17.9 96 0.4 SW 4 7 2 4 1013.7 1013.7 0.0
26/05:00am 18.6 20.2 17.8 95 0.5 WSW 6 7 3 4 1013.9 1013.9 0.0
26/04:30am 18.5 21.3 17.9 96 0.4 CALM 0 0 0 0 1013.7 1013.7 0.0
26/04:00am 18.7 20.2 18.0 96 0.4 S 7 9 4 5 1013.9 1013.9 0.0
26/03:30am 18.7 21.5 18.0 96 0.4 CALM 0 0 0 0 1014.1 1014.1 0.0
26/03:00am 18.7 21.5 18.0 96 0.4 CALM 0 0 0 0 1014.2 1014.2 0.0
26/02:54am 18.6 21.3 17.8 95 0.5 CALM 0 0 0 0 1014.2 1014.2 0.0
26/02:30am 18.6 20.2 17.8 95 0.5 WSW 6 9 3 5 1014.5 1014.5 0.0
26/02:28am 18.6 20.0 17.8 95 0.5 WSW 7 9 4 5 1014.5 1014.5 0.0
26/02:00am 18.5 20.0 17.5 94 0.6 SW 6 7 3 4 1014.6 1014.6 0.0
26/01:30am 18.7 20.1 17.7 94 0.6 WSW 7 9 4 5 1014.7 1014.7 0.0
26/01:00am 18.7 19.8 18.0 96 0.4 SSW 9 11 5 6 1014.6 1014.6 0.0
26/12:30am 18.8 19.1 18.0 95 0.5 SSW 13 19 7 10 1014.5 1014.5 0.0
26/12:00am 18.9 20.0 18.1 95 0.5 SSW 9 15 5 8 1014.8 1014.8 0.0
 
Date/Time
EDT
Temp
°C
App
Temp
°C
Dew
Point
°C
Rel
Hum
%
Delta-T
°C
Wind Press
QNH
hPa
Press
MSL
hPa
Rain since
9am
mm
Dir  Spd
km/h
Gust
km/h
Spd
kts
Gust
kts
25/11:58pm 18.9 20.0 18.1 95 0.5 SSW 9 13 5 7 1014.8 1014.8 0.0
25/11:52pm 19.0 19.8 18.2 95 0.5 SW 11 17 6 9 1014.8 1014.8 0.0
25/11:30pm 19.0 19.0 18.0 94 0.6 SSW 15 19 8 10 1014.6 1014.6 0.0
25/11:00pm 19.3 18.9 18.0 92 0.8 SSW 17 19 9 10 1014.8 1014.8 0.0
25/10:30pm 19.4 19.4 18.2 93 0.7 SSW 15 20 8 11 1014.6 1014.6 0.0
25/10:01pm 19.5 18.8 18.2 92 0.8 SSW 19 26 10 14 1014.2 1014.2 0.0
25/10:00pm 19.5 18.8 18.2 92 0.8 SSW 19 26 10 14 1014.2 1014.2 0.0
25/09:30pm 19.6 18.2 17.9 90 1.0 SSW 22 30 12 16 1013.5 1013.5 0.0
25/09:00pm 20.1 17.5 17.7 86 1.5 SSW 28 39 15 21 1013.0 1013.0 0.0
25/08:30pm 20.4 16.9 17.4 83 1.8 S 32 39 17 21 1012.3 1012.3 0.0
25/08:14pm 21.9 18.8 16.6 72 3.2 SSW 28 44 15 24 1012.1 1012.1 0.0
25/08:00pm 22.4 20.9 16.2 68 3.8 S 19 24 10 13 1011.9 1011.9 0.0
25/07:30pm 22.7 20.0 15.5 64 4.3 S 24 30 13 16 1011.4 1011.4 0.0
25/07:00pm 23.5 21.0 16.1 63 4.5 S 24 32 13 17 1011.0 1011.0 0.0
25/06:30pm 24.8 22.4 16.5 60 5.1 S 24 28 13 15 1010.6 1010.6 0.0
25/06:00pm 26.3 26.0 17.4 58 5.6 SSE 15 19 8 10 1010.5 1010.5 0.0
25/05:30pm 25.6 26.3 18.8 66 4.3 SE 13 15 7 8 1010.1 1010.1 0.0
25/05:00pm 27.6 27.2 18.0 55 6.1 ESE 17 20 9 11 1009.8 1009.8 0.0
25/04:30pm 27.6 27.9 16.9 52 6.7 E 11 13 6 7 1009.9 1009.9 0.0
25/04:00pm 27.7 26.4 15.7 48 7.4 E 17 20 9 11 1009.8 1009.8 0.0
25/03:30pm 28.3 27.1 16.2 47 7.5 E 17 20 9 11 1009.7 1009.7 0.0
25/03:00pm 28.7 27.6 16.3 47 7.7 ESE 17 20 9 11 1009.9 1009.9 0.0
25/02:30pm 28.2 27.4 17.1 51 7.0 ESE 17 20 9 11 1010.3 1010.3 0.0
25/02:00pm 28.3 27.8 17.8 53 6.7 SE 17 24 9 13 1010.5 1010.5 0.0
25/01:30pm 27.4 27.9 18.4 58 5.7 ESE 13 17 7 9 1010.8 1010.8 0.0
25/01:00pm 26.3 26.1 17.6 58 5.5 SE 15 20 8 11 1011.2 1011.2 0.0
25/12:30pm 27.5 27.2 18.2 57 5.9 SE 17 20 9 11 1011.4 1011.4 0.0
25/12:00pm 27.3 27.9 17.8 56 6.0 ESE 11 19 6 10 1011.7 1011.7 0.0
25/11:30am 26.6 28.5 17.7 58 5.6 S 4 7 2 4 1012.2 1012.2 0.0
25/11:00am 26.5 28.8 18.6 62 5.0 SSE 4 11 2 6 1012.4 1012.4 0.0
25/10:30am 25.1 26.6 18.1 65 4.4 N 7 13 4 7 1012.3 1012.3 0.0
25/10:00am 23.1 24.2 17.1 69 3.7 NE 7 11 4 6 1012.5 1012.5 0.0
25/09:30am 22.0 22.5 17.4 75 2.8 NE 11 13 6 7 1012.3 1012.3 0.0
25/09:00am 20.1 20.5 17.3 84 1.7 ENE 11 13 6 7 1012.1 1012.1 0.0
25/08:30am 18.9 19.2 16.9 88 1.2 ENE 11 13 6 7 1012.0 1012.0 0.0
25/08:00am 18.1 18.7 16.8 92 0.8 ENE 9 11 5 6 1011.8 1011.8 0.0
25/07:30am 18.1 17.9 16.8 92 0.8 ENE 13 15 7 8 1011.5 1011.5 0.0
25/07:00am 17.9 18.0 17.4 97 0.3 ENE 13 15 7 8 1011.6 1011.6 0.0
25/06:30am 17.9 17.5 17.1 95 0.5 ENE 15 19 8 10 1011.5 1011.5 0.0
25/06:00am 17.9 17.9 17.3 96 0.4 ENE 13 15 7 8 1011.3 1011.3 0.0
25/05:30am 17.7 18.6 17.5 99 0.1 ENE 9 11 5 6 1011.6 1011.6 0.0
25/05:00am 17.7 19.0 17.5 99 0.1 NNE 7 11 4 6 1011.8 1011.8 0.0
25/04:30am 17.6 18.4 17.4 99 0.1 NE 9 13 5 7 1011.8 1011.8 0.0
25/04:00am 17.5 18.7 17.3 99 0.1 NNE 7 11 4 6 1012.0 1012.0 0.0
25/03:30am 17.4 18.2 17.2 99 0.1 N 9 15 5 8 1012.2 1012.2 0.0
25/03:00am 17.7 17.7 17.1 96 0.4 NNE 13 17 7 9 1012.4 1012.4 0.0
25/02:30am 17.2 18.5 17.0 99 0.1 NNE 6 11 3 6 1013.0 1013.0 0.0
25/02:00am 17.1 19.5 16.9 99 0.1 CALM 0 0 0 0 1013.9 1013.9 0.0
25/01:30am 17.2 19.6 16.9 98 0.2 CALM 0 6 0 3 1014.2 1014.2 0.0
25/01:00am 17.0 18.4 16.5 97 0.3 SW 4 9 2 5 1014.9 1014.9 0.0
25/12:30am 17.1 18.2 16.5 96 0.4 SW 6 9 3 5 1014.8 1014.8 0.0
25/12:00am 17.2 19.2 15.9 92 0.8 CALM 0 0 0 0 1014.8 1014.8 0.0
 
Date/Time
EDT
Temp
°C
App
Temp
°C
Dew
Point
°C
Rel
Hum
%
Delta-T
°C
Wind Press
QNH
hPa
Press
MSL
hPa
Rain since
9am
mm
Dir  Spd
km/h
Gust
km/h
Spd
kts
Gust
kts
24/11:30pm 17.6 18.4 15.8 89 1.1 NE 6 7 3 4 1014.9 1014.9 0.0
24/11:00pm 18.0 18.3 16.0 88 1.2 NNE 9 9 5 5 1015.1 1015.1 0.0
24/10:30pm 18.7 19.0 15.9 84 1.7 ENE 9 11 5 6 1015.4 1015.4 0.0
24/10:00pm 18.9 18.8 16.0 83 1.7 E 11 15 6 8 1015.4 1015.4 0.0
24/09:30pm 18.9 18.8 16.0 83 1.7 E 11 15 6 8 1015.5 1015.5 0.0
24/09:00pm 19.1 18.7 16.3 84 1.7 ESE 13 15 7 8 1015.7 1015.7 0.0
24/08:30pm 19.5 19.8 17.1 86 1.5 S 11 19 6 10 1016.0 1016.0 0.0
24/08:00pm 19.1 19.3 16.7 86 1.4 SSW 11 13 6 7 1015.4 1015.4 0.0
24/07:30pm 19.7 19.5 15.8 78 2.3 SSW 11 11 6 6 1015.5 1015.5 0.0
24/07:00pm 20.9 21.6 16.1 74 2.9 SSW 7 9 4 5 1015.6 1015.6 0.0
24/06:30pm 21.6 21.7 15.4 68 3.7 SE 9 11 5 6 1015.2 1015.2 0.0
24/06:00pm 21.8 21.1 15.4 67 3.8 SE 13 17 7 9 1015.2 1015.2 0.0
24/05:30pm 21.9 20.6 14.8 64 4.2 SE 15 19 8 10 1015.5 1015.5 0.0
24/05:00pm 22.3 20.7 13.9 59 4.9 SE 15 19 8 10 1015.2 1015.2 0.0
24/04:30pm 23.0 22.0 13.5 55 5.5 ESE 11 13 6 7 1015.5 1015.5 0.0
24/04:00pm 21.9 20.5 13.5 59 4.8 ESE 13 15 7 8 1015.8 1015.8 0.0
24/03:30pm 22.5 20.5 12.7 54 5.6 E 15 20 8 11 1015.8 1015.8 0.0
24/03:00pm 22.8 20.1 13.6 56 5.3 ESE 20 26 11 14 1016.2 1016.2 0.0
24/02:30pm 22.2 20.8 13.3 57 5.1 E 13 20 7 11 1017.0 1017.0 0.0
24/02:00pm 20.4 19.5 13.6 65 3.9 SE 11 15 6 8 1017.8 1017.8 0.0

Latest Capital City Observations: Canberra | Sydney | Melbourne | Brisbane | Adelaide | Perth | Hobart | Darwin

Other Formats:

Comma delimited format used in spreadsheet applications
http://www.bom.gov.au/fwo/IDV60901/IDV60901.94854.axf

JavaScript Object Notation format (JSON) in row-major order
http://www.bom.gov.au/fwo/IDV60901/IDV60901.94854.json